createdAt,value
2017-12-10T00:00:14.171Z,0.00
2017-12-10T00:01:14.143Z,0.00
2017-12-10T00:02:14.115Z,0.00
2017-12-10T00:03:14.088Z,0.00
2017-12-10T00:04:14.059Z,0.00
2017-12-10T00:05:14.030Z,0.00
2017-12-10T00:06:14.001Z,0.00
2017-12-10T00:07:13.975Z,0.00
2017-12-10T00:08:13.946Z,0.00
2017-12-10T00:09:13.916Z,0.00
2017-12-10T00:10:13.888Z,0.00
2017-12-10T00:11:13.861Z,0.00
2017-12-10T00:12:13.833Z,0.00
2017-12-10T00:13:13.859Z,0.00
2017-12-10T00:14:13.774Z,0.00
2017-12-10T00:15:13.747Z,0.00
2017-12-10T00:16:13.719Z,0.00
2017-12-10T00:17:13.692Z,0.00
2017-12-10T00:18:13.662Z,0.00
2017-12-10T00:19:13.635Z,0.00
2017-12-10T00:20:13.606Z,0.00
2017-12-10T00:21:13.578Z,0.00
2017-12-10T00:22:13.548Z,0.00
2017-12-10T00:23:13.520Z,0.00
2017-12-10T00:24:13.492Z,0.00
2017-12-10T00:25:13.466Z,0.00
2017-12-10T00:26:13.435Z,0.00
2017-12-10T00:27:13.408Z,0.00
2017-12-10T00:28:13.380Z,0.00
2017-12-10T00:29:13.351Z,0.00
2017-12-10T00:30:13.323Z,0.00
2017-12-10T00:31:13.297Z,0.00
2017-12-10T00:32:13.313Z,0.00
2017-12-10T00:33:13.239Z,0.00
2017-12-10T00:34:13.208Z,0.00
2017-12-10T00:35:13.178Z,0.00
2017-12-10T00:36:13.154Z,0.00
2017-12-10T00:37:13.126Z,0.00
2017-12-10T00:38:13.095Z,0.00
2017-12-10T00:39:13.067Z,0.00
2017-12-10T00:40:13.040Z,0.00
2017-12-10T00:41:13.010Z,0.00
2017-12-10T00:42:12.982Z,0.00
2017-12-10T00:43:12.954Z,0.00
2017-12-10T00:44:12.927Z,0.00
2017-12-10T00:45:12.897Z,0.00
2017-12-10T00:46:12.868Z,0.00
2017-12-10T00:47:12.839Z,0.00
2017-12-10T00:48:12.812Z,0.00
2017-12-10T00:49:12.789Z,0.00
2017-12-10T00:50:12.754Z,0.00
2017-12-10T00:51:12.756Z,0.00
2017-12-10T00:52:12.698Z,0.00
2017-12-10T00:53:12.671Z,0.00
2017-12-10T00:54:12.640Z,0.00
2017-12-10T00:55:12.612Z,0.00
2017-12-10T00:56:12.584Z,0.00
2017-12-10T00:57:12.556Z,0.00
2017-12-10T00:58:12.528Z,0.00
2017-12-10T00:59:12.500Z,0.00
2017-12-10T01:00:12.472Z,0.00
2017-12-10T01:01:12.444Z,0.00
2017-12-10T01:02:12.415Z,0.00
2017-12-10T01:03:12.384Z,0.00
2017-12-10T01:04:12.357Z,0.00
2017-12-10T01:05:12.332Z,0.00
2017-12-10T01:06:12.305Z,0.00
2017-12-10T01:07:12.272Z,0.00
2017-12-10T01:08:12.245Z,0.00
2017-12-10T01:09:12.216Z,0.00
2017-12-10T01:10:12.187Z,0.00
2017-12-10T01:11:12.158Z,0.00
2017-12-10T01:12:12.131Z,0.00
2017-12-10T01:13:12.103Z,0.00
2017-12-10T01:14:12.075Z,0.00
2017-12-10T01:15:12.045Z,0.00
2017-12-10T01:16:12.018Z,0.00
2017-12-10T01:17:11.990Z,0.00
2017-12-10T01:18:11.959Z,0.00
2017-12-10T01:19:11.933Z,0.00
2017-12-10T01:20:11.904Z,0.00
2017-12-10T01:21:11.876Z,0.00
2017-12-10T01:22:11.848Z,0.00
2017-12-10T01:23:11.819Z,0.00
2017-12-10T01:24:11.793Z,0.00
2017-12-10T01:25:11.762Z,0.00
2017-12-10T01:26:11.732Z,0.00
2017-12-10T01:27:11.705Z,0.00
2017-12-10T01:28:11.676Z,0.00
2017-12-10T01:29:11.650Z,0.00
2017-12-10T01:30:11.620Z,0.00
2017-12-10T01:31:11.591Z,0.00
2017-12-10T01:32:11.564Z,0.00
2017-12-10T01:33:11.535Z,0.00
2017-12-10T01:34:11.505Z,0.00
2017-12-10T01:35:11.499Z,0.00
2017-12-10T01:36:11.450Z,0.00
2017-12-10T01:37:11.423Z,0.00
2017-12-10T01:38:11.392Z,0.00
2017-12-10T01:39:11.367Z,0.00
2017-12-10T01:40:11.336Z,0.00
2017-12-10T01:41:11.310Z,0.00
2017-12-10T01:42:11.280Z,0.00
2017-12-10T01:43:11.252Z,0.00
2017-12-10T01:44:11.225Z,0.00
2017-12-10T01:45:11.200Z,0.00
2017-12-10T01:46:11.167Z,0.00
2017-12-10T01:47:11.140Z,0.00
2017-12-10T01:48:11.112Z,0.00
2017-12-10T01:49:11.084Z,0.00
2017-12-10T01:50:11.055Z,0.00
2017-12-10T01:51:11.027Z,0.00
2017-12-10T01:52:10.999Z,0.00
2017-12-10T01:53:10.970Z,0.00
2017-12-10T01:54:10.941Z,0.00
2017-12-10T01:55:10.912Z,0.00
2017-12-10T01:56:10.886Z,0.00
2017-12-10T01:57:10.856Z,0.00
2017-12-10T01:58:10.829Z,0.00
2017-12-10T01:59:10.801Z,0.00
2017-12-10T02:00:10.772Z,0.00
2017-12-10T02:01:10.744Z,0.00
2017-12-10T02:02:10.715Z,0.00
2017-12-10T02:03:10.688Z,0.00
2017-12-10T02:04:10.661Z,0.00
2017-12-10T02:05:10.632Z,0.00
2017-12-10T02:06:10.602Z,0.00
2017-12-10T02:07:10.576Z,0.00
2017-12-10T02:08:10.547Z,0.00
2017-12-10T02:09:10.518Z,0.00
2017-12-10T02:10:10.489Z,0.00
2017-12-10T02:11:10.463Z,0.00
2017-12-10T02:12:10.433Z,0.00
2017-12-10T02:13:10.406Z,0.00
2017-12-10T02:14:10.379Z,0.00
2017-12-10T02:15:10.348Z,0.00
2017-12-10T02:16:10.321Z,0.00
2017-12-10T02:17:10.293Z,0.00
2017-12-10T02:18:10.264Z,0.00
2017-12-10T02:19:10.237Z,0.00
2017-12-10T02:20:10.207Z,0.00
2017-12-10T02:21:10.180Z,0.00
2017-12-10T02:22:10.153Z,0.00
2017-12-10T02:23:10.122Z,0.00
2017-12-10T02:24:10.095Z,0.00
2017-12-10T02:25:10.068Z,0.00
2017-12-10T02:26:10.044Z,0.00
2017-12-10T02:27:10.010Z,0.00
2017-12-10T02:28:09.983Z,0.00
2017-12-10T02:29:09.952Z,0.00
2017-12-10T02:30:09.924Z,0.00
2017-12-10T02:31:09.899Z,0.00
2017-12-10T02:32:09.868Z,0.00
2017-12-10T02:33:09.841Z,0.00
2017-12-10T02:34:09.816Z,0.00
2017-12-10T02:35:09.785Z,0.00
2017-12-10T02:36:09.755Z,0.00
2017-12-10T02:37:09.731Z,0.00
2017-12-10T02:38:09.698Z,0.00
2017-12-10T02:39:09.671Z,0.00
2017-12-10T02:40:09.645Z,0.00
2017-12-10T02:41:09.614Z,0.00
2017-12-10T02:42:09.586Z,0.00
2017-12-10T02:43:09.560Z,0.00
2017-12-10T02:44:09.530Z,0.00
2017-12-10T02:45:09.502Z,0.00
2017-12-10T02:46:09.472Z,0.00
2017-12-10T02:47:09.446Z,0.00
2017-12-10T02:48:09.417Z,0.00
2017-12-10T02:49:09.393Z,0.00
2017-12-10T02:50:09.361Z,0.00
2017-12-10T02:51:09.333Z,0.00
2017-12-10T02:52:09.304Z,0.00
2017-12-10T02:53:09.276Z,0.00
2017-12-10T02:54:09.246Z,0.00
2017-12-10T02:55:09.219Z,0.00
2017-12-10T02:56:09.191Z,0.00
2017-12-10T02:57:09.167Z,0.00
2017-12-10T02:58:09.134Z,0.00
2017-12-10T02:59:09.106Z,0.00
2017-12-10T03:00:09.081Z,0.00
2017-12-10T03:01:09.054Z,0.00
2017-12-10T03:02:09.021Z,0.00
2017-12-10T03:03:08.994Z,0.00
2017-12-10T03:04:08.966Z,0.00
2017-12-10T03:05:08.936Z,0.00
2017-12-10T03:06:08.908Z,0.00
2017-12-10T03:07:08.881Z,0.00
2017-12-10T03:08:08.853Z,0.00
2017-12-10T03:09:08.825Z,0.00
2017-12-10T03:10:08.796Z,0.00
2017-12-10T03:11:08.767Z,0.00
2017-12-10T03:12:08.740Z,0.00
2017-12-10T03:13:08.718Z,0.00
2017-12-10T03:14:08.682Z,0.00
2017-12-10T03:15:08.661Z,0.00
2017-12-10T03:16:08.637Z,0.00
2017-12-10T03:17:08.600Z,0.00
2017-12-10T03:18:08.570Z,0.00
2017-12-10T03:19:08.543Z,0.00
2017-12-10T03:20:08.515Z,0.00
2017-12-10T03:21:08.486Z,0.00
2017-12-10T03:22:08.457Z,0.00
2017-12-10T03:23:08.429Z,0.00
2017-12-10T03:24:08.402Z,0.00
2017-12-10T03:25:08.373Z,0.00
2017-12-10T03:26:08.344Z,0.00
2017-12-10T03:27:08.317Z,0.00
2017-12-10T03:28:08.290Z,0.00
2017-12-10T03:29:08.261Z,0.00
2017-12-10T03:30:08.233Z,0.00
2017-12-10T03:31:08.216Z,0.00
2017-12-10T03:32:08.176Z,0.00
2017-12-10T03:33:08.148Z,0.00
2017-12-10T03:34:08.120Z,0.00
2017-12-10T03:35:08.092Z,0.00
2017-12-10T03:36:08.063Z,0.00
2017-12-10T03:37:08.037Z,0.00
2017-12-10T03:38:08.011Z,0.00
2017-12-10T03:39:07.980Z,0.00
2017-12-10T03:40:07.952Z,0.00
2017-12-10T03:41:07.924Z,0.00
2017-12-10T03:42:07.894Z,0.00
2017-12-10T03:43:07.867Z,0.00
2017-12-10T03:44:07.838Z,0.00
2017-12-10T03:45:07.819Z,0.00
2017-12-10T03:46:07.783Z,0.00
2017-12-10T03:47:07.756Z,0.00
2017-12-10T03:48:07.728Z,0.00
2017-12-10T03:49:07.700Z,0.00
2017-12-10T03:50:07.672Z,0.00
2017-12-10T03:51:07.645Z,0.00
2017-12-10T03:52:07.615Z,0.00
2017-12-10T03:53:07.589Z,0.00
2017-12-10T03:54:07.558Z,0.00
2017-12-10T03:55:07.534Z,0.00
2017-12-10T03:56:07.504Z,0.00
2017-12-10T03:57:07.476Z,0.00
2017-12-10T03:58:07.447Z,0.00
2017-12-10T03:59:07.420Z,0.00
2017-12-10T04:00:07.392Z,0.00
2017-12-10T04:01:07.364Z,0.00
2017-12-10T04:02:07.334Z,0.00
2017-12-10T04:03:07.307Z,0.00
2017-12-10T04:04:07.281Z,0.00
2017-12-10T04:05:07.252Z,0.00
2017-12-10T04:06:07.223Z,0.00
2017-12-10T04:07:07.199Z,0.00
2017-12-10T04:08:07.171Z,0.00
2017-12-10T04:09:07.139Z,0.00
2017-12-10T04:10:07.115Z,0.00
2017-12-10T04:11:07.084Z,0.00
2017-12-10T04:12:07.058Z,0.00
2017-12-10T04:13:07.029Z,0.00
2017-12-10T04:14:06.999Z,0.00
2017-12-10T04:15:06.971Z,0.00
2017-12-10T04:16:06.943Z,0.00
2017-12-10T04:17:06.916Z,0.00
2017-12-10T04:18:06.889Z,0.00
2017-12-10T04:19:06.859Z,0.00
2017-12-10T04:20:06.833Z,0.00
2017-12-10T04:21:06.804Z,0.00
2017-12-10T04:22:06.774Z,0.00
2017-12-10T04:23:06.746Z,0.00
2017-12-10T04:24:06.718Z,0.00
2017-12-10T04:25:06.691Z,0.00
2017-12-10T04:26:06.662Z,0.00
2017-12-10T04:27:06.634Z,0.00
2017-12-10T04:28:06.609Z,0.00
2017-12-10T04:29:06.582Z,0.00
2017-12-10T04:30:06.557Z,0.00
2017-12-10T04:31:06.522Z,0.00
2017-12-10T04:32:06.494Z,0.00
2017-12-10T04:33:06.468Z,0.00
2017-12-10T04:34:06.440Z,0.00
2017-12-10T04:35:06.410Z,0.00
2017-12-10T04:36:06.384Z,0.00
2017-12-10T04:37:06.354Z,0.00
2017-12-10T04:38:06.326Z,0.00
2017-12-10T04:39:06.299Z,0.00
2017-12-10T04:40:06.274Z,0.00
2017-12-10T04:41:06.242Z,0.00
2017-12-10T04:42:06.215Z,0.00
2017-12-10T04:43:06.187Z,0.00
2017-12-10T04:44:06.158Z,0.00
2017-12-10T04:45:06.131Z,0.00
2017-12-10T04:46:06.102Z,0.00
2017-12-10T04:47:06.073Z,0.00
2017-12-10T04:48:06.046Z,0.00
2017-12-10T04:49:06.018Z,0.00
2017-12-10T04:50:05.990Z,0.00
2017-12-10T04:51:05.965Z,0.00
2017-12-10T04:52:05.935Z,0.00
2017-12-10T04:53:05.905Z,0.00
2017-12-10T04:54:05.876Z,0.00
2017-12-10T04:55:05.843Z,0.00
2017-12-10T04:56:05.821Z,0.00
2017-12-10T04:57:05.846Z,0.00
2017-12-10T04:58:05.762Z,0.00
2017-12-10T04:59:05.736Z,0.00
2017-12-10T05:00:05.707Z,0.00
2017-12-10T05:01:05.679Z,0.00
2017-12-10T05:02:05.650Z,0.00
2017-12-10T05:03:05.625Z,0.00
2017-12-10T05:04:05.594Z,0.00
2017-12-10T05:05:05.565Z,0.00
2017-12-10T05:06:05.537Z,0.00
2017-12-10T05:07:05.509Z,0.00
2017-12-10T05:08:05.481Z,0.00
2017-12-10T05:09:05.455Z,0.00
2017-12-10T05:10:05.425Z,0.00
2017-12-10T05:11:05.397Z,0.00
2017-12-10T05:12:05.367Z,0.00
2017-12-10T05:13:05.340Z,0.00
2017-12-10T05:14:05.311Z,0.00
2017-12-10T05:15:05.283Z,0.00
2017-12-10T05:16:05.255Z,0.00
2017-12-10T05:17:05.232Z,0.00
2017-12-10T05:18:05.199Z,0.00
2017-12-10T05:19:05.171Z,0.00
2017-12-10T05:20:05.142Z,0.00
2017-12-10T05:21:05.114Z,0.00
2017-12-10T05:22:05.086Z,0.00
2017-12-10T05:23:05.061Z,0.00
2017-12-10T05:24:05.030Z,0.00
2017-12-10T05:25:05.002Z,0.00
2017-12-10T05:26:04.972Z,0.00
2017-12-10T05:27:04.944Z,0.00
2017-12-10T05:28:04.918Z,0.00
2017-12-10T05:29:04.888Z,0.00
2017-12-10T05:30:04.859Z,0.00
2017-12-10T05:31:04.827Z,0.00
2017-12-10T05:32:04.804Z,0.00
2017-12-10T05:33:04.776Z,0.00
2017-12-10T05:34:04.748Z,0.00
2017-12-10T05:35:04.718Z,0.00
2017-12-10T05:36:04.689Z,0.00
2017-12-10T05:37:04.663Z,0.00
2017-12-10T05:38:04.632Z,0.00
2017-12-10T05:39:04.605Z,0.00
2017-12-10T05:40:04.579Z,0.00
2017-12-10T05:41:04.550Z,0.00
2017-12-10T05:42:04.522Z,0.00
2017-12-10T05:43:04.491Z,0.00
2017-12-10T05:44:04.462Z,0.00
2017-12-10T05:45:04.435Z,0.00
2017-12-10T05:46:04.406Z,0.00
2017-12-10T05:47:04.378Z,0.00
2017-12-10T05:48:04.349Z,0.00
2017-12-10T05:49:04.323Z,0.00
2017-12-10T05:50:04.292Z,0.00
2017-12-10T05:51:04.260Z,0.00
2017-12-10T05:52:04.237Z,0.00
2017-12-10T05:53:04.208Z,0.00
2017-12-10T05:54:04.179Z,0.00
2017-12-10T05:55:04.151Z,0.00
2017-12-10T05:56:04.123Z,0.00
2017-12-10T05:57:04.095Z,0.00
2017-12-10T05:58:04.066Z,0.00
2017-12-10T05:59:04.037Z,0.00
2017-12-10T06:00:04.010Z,0.00
2017-12-10T06:01:03.983Z,0.00
2017-12-10T06:02:03.952Z,0.00
2017-12-10T06:03:03.925Z,0.00
2017-12-10T06:04:03.897Z,0.00
2017-12-10T06:05:03.868Z,0.00
2017-12-10T06:06:03.846Z,0.00
2017-12-10T06:07:03.810Z,0.00
2017-12-10T06:08:03.783Z,0.00
2017-12-10T06:09:03.762Z,0.00
2017-12-10T06:10:03.724Z,0.00
2017-12-10T06:11:03.696Z,0.00
2017-12-10T06:12:03.670Z,0.00
2017-12-10T06:13:03.641Z,0.00
2017-12-10T06:14:03.609Z,0.00
2017-12-10T06:15:03.587Z,0.00
2017-12-10T06:16:03.555Z,0.00
2017-12-10T06:17:03.528Z,0.00
2017-12-10T06:18:03.503Z,0.00
2017-12-10T06:19:03.471Z,0.00
2017-12-10T06:20:03.445Z,0.00
2017-12-10T06:21:03.417Z,0.00
2017-12-10T06:22:03.386Z,0.00
2017-12-10T06:23:03.359Z,0.00
2017-12-10T06:24:03.331Z,0.00
2017-12-10T06:25:03.300Z,0.00
2017-12-10T06:26:03.272Z,0.00
2017-12-10T06:27:03.244Z,0.00
2017-12-10T06:28:03.218Z,0.00
2017-12-10T06:29:03.194Z,0.00
2017-12-10T06:30:03.159Z,0.00
2017-12-10T06:31:03.132Z,0.00
2017-12-10T06:32:03.102Z,0.00
2017-12-10T06:33:03.077Z,0.00
2017-12-10T06:34:03.048Z,0.00
2017-12-10T06:35:03.018Z,0.00
2017-12-10T06:36:02.991Z,0.00
2017-12-10T06:37:02.964Z,0.00
2017-12-10T06:38:02.934Z,0.00
2017-12-10T06:39:02.907Z,0.00
2017-12-10T06:40:02.878Z,0.00
2017-12-10T06:41:02.848Z,0.00
2017-12-10T06:42:02.823Z,0.00
2017-12-10T06:43:02.792Z,0.00
2017-12-10T06:44:02.764Z,0.00
2017-12-10T06:45:02.736Z,0.00
2017-12-10T06:46:02.707Z,0.00
2017-12-10T06:47:02.680Z,0.00
2017-12-10T06:48:02.652Z,0.00
2017-12-10T06:49:02.625Z,0.00
2017-12-10T06:50:02.596Z,0.00
2017-12-10T06:51:02.569Z,0.00
2017-12-10T06:52:02.541Z,0.00
2017-12-10T06:53:02.510Z,0.00
2017-12-10T06:54:02.483Z,0.00
2017-12-10T06:55:02.451Z,0.00
2017-12-10T06:56:02.425Z,0.00
2017-12-10T06:57:02.398Z,0.00
2017-12-10T06:58:02.368Z,0.00
2017-12-10T06:59:02.341Z,0.00
2017-12-10T07:00:02.313Z,0.00
2017-12-10T07:01:02.285Z,0.00
2017-12-10T07:02:02.258Z,0.00
2017-12-10T07:03:02.229Z,0.00
2017-12-10T07:04:02.196Z,0.00
2017-12-10T07:05:02.170Z,0.00
2017-12-10T07:06:02.144Z,0.00
2017-12-10T07:07:02.112Z,0.00
2017-12-10T07:08:02.087Z,0.00
2017-12-10T07:09:02.058Z,0.00
2017-12-10T07:10:02.030Z,0.00
2017-12-10T07:11:02.006Z,0.00
2017-12-10T07:12:01.973Z,0.00
2017-12-10T07:13:01.945Z,0.00
2017-12-10T07:14:01.920Z,0.00
2017-12-10T07:15:01.883Z,0.00
2017-12-10T07:16:01.862Z,0.00
2017-12-10T07:17:01.833Z,0.00
2017-12-10T07:18:01.809Z,0.00
2017-12-10T07:19:01.777Z,0.00
2017-12-10T07:20:01.754Z,0.00
2017-12-10T07:21:01.718Z,0.00
2017-12-10T07:22:01.690Z,0.00
2017-12-10T07:23:01.675Z,0.00
2017-12-10T07:24:01.667Z,0.00
2017-12-10T07:25:01.604Z,0.00
2017-12-10T07:26:01.617Z,0.00
2017-12-10T07:27:01.554Z,0.00
2017-12-10T07:28:01.520Z,0.00
2017-12-10T07:29:01.502Z,0.00
2017-12-10T07:30:01.474Z,0.00
2017-12-10T07:31:01.440Z,0.00
2017-12-10T07:32:01.407Z,5.63
2017-12-10T07:33:01.382Z,5.63
2017-12-10T07:34:01.348Z,5.63
2017-12-10T07:35:01.321Z,5.63
2017-12-10T07:36:01.293Z,5.63
2017-12-10T07:37:01.357Z,5.63
2017-12-10T07:38:01.287Z,5.63
2017-12-10T07:39:01.208Z,5.63
2017-12-10T07:40:01.185Z,5.63
2017-12-10T07:41:01.174Z,5.63
2017-12-10T07:42:01.123Z,5.63
2017-12-10T07:43:01.093Z,5.63
2017-12-10T07:44:01.081Z,11.25
2017-12-10T07:45:01.039Z,11.25
2017-12-10T07:46:01.041Z,11.25
2017-12-10T07:47:00.981Z,11.25
2017-12-10T07:48:00.951Z,11.25
2017-12-10T07:49:01.013Z,16.88
2017-12-10T07:50:00.899Z,16.88
2017-12-10T07:51:00.870Z,16.88
2017-12-10T07:52:00.890Z,16.88
2017-12-10T07:53:00.865Z,22.50
2017-12-10T07:54:00.788Z,28.13
2017-12-10T07:55:00.755Z,28.13
2017-12-10T07:56:00.745Z,33.75
2017-12-10T07:57:00.698Z,39.38
2017-12-10T07:58:00.671Z,45.00
2017-12-10T07:59:00.707Z,45.00
2017-12-10T08:00:00.613Z,45.00
2017-12-10T08:01:00.586Z,50.63
2017-12-10T08:02:00.630Z,50.63
2017-12-10T08:03:01.322Z,50.63
2017-12-10T08:04:00.497Z,50.63
2017-12-10T08:05:00.474Z,50.63
2017-12-10T08:06:00.444Z,50.63
2017-12-10T08:07:00.425Z,50.63
2017-12-10T08:08:00.391Z,50.63
2017-12-10T08:09:00.362Z,50.63
2017-12-10T08:10:00.332Z,50.63
2017-12-10T08:11:00.710Z,56.25
2017-12-10T08:12:00.275Z,61.88
2017-12-10T08:13:00.247Z,61.88
2017-12-10T08:14:00.316Z,61.88
2017-12-10T08:15:00.303Z,67.50
2017-12-10T08:16:00.162Z,67.50
2017-12-10T08:17:00.134Z,67.50
2017-12-10T08:18:00.104Z,67.50
2017-12-10T08:19:00.078Z,67.50
2017-12-10T08:20:00.051Z,73.13
2017-12-10T08:21:00.023Z,73.13
2017-12-10T08:22:00.003Z,73.13
2017-12-10T08:22:59.975Z,78.75
2017-12-10T08:23:59.939Z,84.38
2017-12-10T08:24:59.912Z,84.38
2017-12-10T08:25:59.882Z,84.38
2017-12-10T08:26:59.854Z,84.38
2017-12-10T08:27:59.827Z,90.00
2017-12-10T08:28:59.797Z,95.63
2017-12-10T08:29:59.770Z,101.25
2017-12-10T08:30:59.742Z,112.50
2017-12-10T08:31:59.714Z,118.13
2017-12-10T08:32:59.685Z,123.75
2017-12-10T08:33:59.656Z,123.75
2017-12-10T08:34:59.630Z,123.75
2017-12-10T08:35:59.601Z,123.75
2017-12-10T08:36:59.572Z,123.75
2017-12-10T08:37:59.546Z,118.13
2017-12-10T08:38:59.561Z,112.50
2017-12-10T08:39:59.552Z,106.88
2017-12-10T08:40:59.464Z,106.88
2017-12-10T08:41:59.528Z,106.88
2017-12-10T08:42:59.485Z,112.50
2017-12-10T08:43:59.462Z,106.88
2017-12-10T08:44:59.453Z,112.50
2017-12-10T08:45:59.438Z,112.50
2017-12-10T08:46:59.402Z,112.50
2017-12-10T08:47:59.346Z,106.88
2017-12-10T08:48:59.238Z,101.25
2017-12-10T08:49:59.209Z,101.25
2017-12-10T08:50:59.185Z,101.25
2017-12-10T08:51:59.156Z,101.25
2017-12-10T08:52:59.125Z,101.25
2017-12-10T08:53:59.096Z,106.88
2017-12-10T08:54:59.076Z,112.50
2017-12-10T08:55:59.037Z,112.50
2017-12-10T08:56:59.014Z,112.50
2017-12-10T08:57:58.983Z,112.50
2017-12-10T08:58:59.020Z,112.50
2017-12-10T08:59:58.954Z,112.50
2017-12-10T09:00:58.902Z,112.50
2017-12-10T09:01:58.875Z,118.13
2017-12-10T09:02:58.849Z,118.13
2017-12-10T09:03:58.818Z,118.13
2017-12-10T09:04:58.793Z,123.75
2017-12-10T09:05:58.763Z,118.13
2017-12-10T09:06:58.734Z,118.13
2017-12-10T09:07:58.711Z,112.50
2017-12-10T09:08:58.677Z,106.88
2017-12-10T09:09:58.649Z,101.25
2017-12-10T09:10:58.625Z,101.25
2017-12-10T09:11:58.594Z,101.25
2017-12-10T09:12:58.566Z,106.88
2017-12-10T09:13:58.546Z,106.88
2017-12-10T09:14:58.510Z,112.50
2017-12-10T09:15:58.484Z,112.50
2017-12-10T09:16:58.455Z,118.13
2017-12-10T09:17:58.426Z,106.88
2017-12-10T09:18:58.398Z,106.88
2017-12-10T09:19:58.373Z,106.88
2017-12-10T09:20:58.343Z,106.88
2017-12-10T09:21:58.316Z,112.50
2017-12-10T09:22:58.287Z,118.13
2017-12-10T09:23:58.260Z,123.75
2017-12-10T09:24:58.232Z,123.75
2017-12-10T09:25:58.205Z,123.75
2017-12-10T09:26:58.177Z,123.75
2017-12-10T09:27:58.150Z,129.38
2017-12-10T09:28:58.120Z,140.63
2017-12-10T09:29:58.093Z,146.25
2017-12-10T09:30:58.066Z,151.88
2017-12-10T09:31:58.039Z,146.25
2017-12-10T09:32:58.010Z,146.25
2017-12-10T09:33:57.984Z,140.63
2017-12-10T09:34:57.954Z,140.63
2017-12-10T09:35:57.928Z,140.63
2017-12-10T09:36:57.901Z,140.63
2017-12-10T09:37:57.869Z,140.63
2017-12-10T09:38:57.845Z,140.63
2017-12-10T09:39:57.818Z,140.63
2017-12-10T09:40:57.788Z,140.63
2017-12-10T09:41:57.760Z,146.25
2017-12-10T09:42:57.733Z,146.25
2017-12-10T09:43:57.708Z,146.25
2017-12-10T09:44:57.781Z,151.88
2017-12-10T09:45:57.651Z,151.88
2017-12-10T09:46:57.644Z,151.88
2017-12-10T09:47:57.676Z,151.88
2017-12-10T09:48:57.571Z,146.25
2017-12-10T09:49:57.540Z,140.63
2017-12-10T09:50:57.512Z,135.00
2017-12-10T09:51:57.486Z,129.38
2017-12-10T09:52:57.461Z,129.38
2017-12-10T09:53:57.519Z,135.00
2017-12-10T09:54:57.449Z,140.63
2017-12-10T09:55:57.376Z,146.25
2017-12-10T09:56:57.348Z,140.63
2017-12-10T09:57:57.318Z,135.00
2017-12-10T09:58:57.291Z,123.75
2017-12-10T09:59:57.265Z,112.50
2017-12-10T10:00:57.332Z,112.50
2017-12-10T10:01:57.313Z,112.50
2017-12-10T10:02:57.276Z,118.13
2017-12-10T10:03:57.226Z,123.75
2017-12-10T10:04:57.127Z,129.38
2017-12-10T10:05:57.193Z,129.38
2017-12-10T10:06:57.138Z,129.38
2017-12-10T10:07:57.104Z,123.75
2017-12-10T10:08:57.106Z,118.13
2017-12-10T10:09:57.073Z,118.13
2017-12-10T10:10:56.957Z,123.75
2017-12-10T10:11:56.934Z,123.75
2017-12-10T10:12:56.906Z,123.75
2017-12-10T10:13:56.878Z,123.75
2017-12-10T10:14:56.851Z,118.13
2017-12-10T10:15:56.824Z,118.13
2017-12-10T10:16:56.797Z,112.50
2017-12-10T10:17:56.767Z,112.50
2017-12-10T10:18:56.742Z,112.50
2017-12-10T10:19:56.713Z,112.50
2017-12-10T10:20:56.685Z,118.13
2017-12-10T10:21:56.657Z,118.13
2017-12-10T10:22:56.630Z,118.13
2017-12-10T10:23:56.605Z,118.13
2017-12-10T10:24:56.578Z,123.75
2017-12-10T10:25:56.546Z,123.75
2017-12-10T10:26:56.522Z,123.75
2017-12-10T10:27:56.504Z,123.75
2017-12-10T10:28:56.464Z,123.75
2017-12-10T10:29:56.436Z,118.13
2017-12-10T10:30:56.405Z,118.13
2017-12-10T10:31:56.407Z,118.13
2017-12-10T10:32:56.355Z,118.13
2017-12-10T10:33:56.419Z,118.13
2017-12-10T10:34:56.305Z,118.13
2017-12-10T10:35:56.287Z,118.13
2017-12-10T10:36:56.338Z,118.13
2017-12-10T10:37:56.305Z,118.13
2017-12-10T10:38:56.221Z,123.75
2017-12-10T10:39:56.209Z,123.75
2017-12-10T10:40:56.226Z,118.13
2017-12-10T10:41:56.104Z,118.13
2017-12-10T10:42:56.077Z,112.50
2017-12-10T10:43:56.049Z,112.50
2017-12-10T10:44:56.022Z,112.50
2017-12-10T10:45:55.994Z,112.50
2017-12-10T10:46:55.968Z,106.88
2017-12-10T10:47:56.039Z,106.88
2017-12-10T10:48:56.015Z,106.88
2017-12-10T10:49:55.978Z,106.88
2017-12-10T10:50:55.934Z,106.88
2017-12-10T10:51:55.822Z,106.88
2017-12-10T10:52:55.799Z,106.88
2017-12-10T10:53:55.772Z,106.88
2017-12-10T10:54:55.742Z,106.88
2017-12-10T10:55:55.722Z,106.88
2017-12-10T10:56:55.715Z,101.25
2017-12-10T10:57:55.661Z,101.25
2017-12-10T10:58:55.653Z,101.25
2017-12-10T10:59:55.605Z,101.25
2017-12-10T11:00:55.577Z,106.88
2017-12-10T11:01:55.551Z,106.88
2017-12-10T11:02:55.523Z,106.88
2017-12-10T11:03:55.574Z,106.88
2017-12-10T11:04:55.510Z,101.25
2017-12-10T11:05:55.439Z,101.25
2017-12-10T11:06:55.413Z,101.25
2017-12-10T11:07:55.384Z,101.25
2017-12-10T11:08:55.394Z,101.25
2017-12-10T11:09:55.327Z,95.63
2017-12-10T11:10:55.300Z,95.63
2017-12-10T11:11:55.355Z,95.63
2017-12-10T11:12:55.247Z,90.00
2017-12-10T11:13:55.218Z,90.00
2017-12-10T11:14:55.190Z,90.00
2017-12-10T11:15:55.163Z,90.00
2017-12-10T11:16:55.136Z,90.00
2017-12-10T11:17:55.107Z,84.38
2017-12-10T11:18:55.078Z,84.38
2017-12-10T11:19:55.053Z,84.38
2017-12-10T11:20:55.025Z,84.38
2017-12-10T11:21:54.996Z,84.38
2017-12-10T11:22:54.968Z,84.38
2017-12-10T11:23:54.941Z,78.75
2017-12-10T11:24:54.916Z,78.75
2017-12-10T11:25:54.885Z,73.13
2017-12-10T11:26:54.859Z,73.13
2017-12-10T11:27:54.831Z,73.13
2017-12-10T11:28:54.804Z,73.13
2017-12-10T11:29:54.774Z,73.13
2017-12-10T11:30:54.748Z,67.50
2017-12-10T11:31:54.796Z,67.50
2017-12-10T11:32:54.686Z,67.50
2017-12-10T11:33:54.663Z,67.50
2017-12-10T11:34:54.637Z,67.50
2017-12-10T11:35:54.608Z,61.88
2017-12-10T11:36:54.584Z,61.88
2017-12-10T11:37:54.555Z,61.88
2017-12-10T11:38:54.523Z,61.88
2017-12-10T11:39:54.499Z,61.88
2017-12-10T11:40:54.472Z,61.88
2017-12-10T11:41:54.443Z,56.25
2017-12-10T11:42:54.416Z,56.25
2017-12-10T11:43:54.388Z,56.25
2017-12-10T11:44:54.362Z,56.25
2017-12-10T11:45:54.339Z,56.25
2017-12-10T11:46:54.303Z,56.25
2017-12-10T11:47:54.276Z,56.25
2017-12-10T11:48:54.252Z,56.25
2017-12-10T11:49:54.221Z,56.25
2017-12-10T11:50:54.194Z,50.63
2017-12-10T11:51:54.165Z,50.63
2017-12-10T11:52:54.142Z,50.63
2017-12-10T11:53:54.130Z,50.63
2017-12-10T11:54:54.099Z,45.00
2017-12-10T11:55:54.059Z,45.00
2017-12-10T11:56:54.027Z,45.00
2017-12-10T11:57:54.000Z,45.00
2017-12-10T11:58:53.973Z,45.00
2017-12-10T11:59:53.945Z,45.00
2017-12-10T12:00:53.916Z,45.00
2017-12-10T12:01:53.888Z,45.00
2017-12-10T12:02:53.861Z,39.38
2017-12-10T12:03:53.833Z,39.38
2017-12-10T12:04:53.805Z,39.38
2017-12-10T12:05:53.776Z,39.38
2017-12-10T12:06:53.820Z,39.38
2017-12-10T12:07:53.724Z,39.38
2017-12-10T12:08:53.693Z,39.38
2017-12-10T12:09:53.666Z,39.38
2017-12-10T12:10:53.638Z,39.38
2017-12-10T12:11:53.608Z,39.38
2017-12-10T12:12:53.582Z,39.38
2017-12-10T12:13:53.551Z,39.38
2017-12-10T12:14:53.524Z,39.38
2017-12-10T12:15:53.498Z,33.75
2017-12-10T12:16:53.516Z,33.75
2017-12-10T12:17:53.439Z,33.75
2017-12-10T12:18:53.412Z,33.75
2017-12-10T12:19:53.440Z,33.75
2017-12-10T12:20:53.354Z,33.75
2017-12-10T12:21:53.328Z,33.75
2017-12-10T12:22:53.298Z,33.75
2017-12-10T12:23:53.271Z,33.75
2017-12-10T12:24:53.256Z,33.75
2017-12-10T12:25:53.210Z,33.75
2017-12-10T12:26:53.186Z,33.75
2017-12-10T12:27:53.157Z,33.75
2017-12-10T12:28:53.130Z,33.75
2017-12-10T12:29:53.100Z,33.75
2017-12-10T12:30:53.072Z,33.75
2017-12-10T12:31:53.045Z,33.75
2017-12-10T12:32:53.017Z,33.75
2017-12-10T12:33:52.992Z,33.75
2017-12-10T12:34:52.959Z,33.75
2017-12-10T12:35:52.933Z,33.75
2017-12-10T12:36:52.906Z,33.75
2017-12-10T12:37:52.879Z,33.75
2017-12-10T12:38:52.880Z,33.75
2017-12-10T12:39:52.890Z,33.75
2017-12-10T12:40:52.790Z,33.75
2017-12-10T12:41:52.762Z,28.13
2017-12-10T12:42:52.751Z,28.13
2017-12-10T12:43:52.706Z,22.50
2017-12-10T12:44:52.678Z,28.13
2017-12-10T12:45:52.649Z,28.13
2017-12-10T12:46:52.620Z,22.50
2017-12-10T12:47:52.591Z,22.50
2017-12-10T12:48:52.563Z,22.50
2017-12-10T12:49:52.534Z,28.13
2017-12-10T12:50:52.507Z,28.13
2017-12-10T12:51:52.477Z,28.13
2017-12-10T12:52:52.453Z,28.13
2017-12-10T12:53:52.450Z,28.13
2017-12-10T12:54:52.396Z,22.50
2017-12-10T12:55:52.408Z,22.50
2017-12-10T12:56:52.336Z,28.13
2017-12-10T12:57:52.305Z,28.13
2017-12-10T12:58:52.278Z,22.50
2017-12-10T12:59:52.251Z,22.50
2017-12-10T13:00:52.270Z,22.50
2017-12-10T13:01:52.194Z,22.50